createdAt,value
2018-03-27T00:00:48.579Z,26.90
2018-03-27T00:03:16.666Z,29.17
2018-03-27T00:05:44.654Z,29.20
2018-03-27T00:08:13.016Z,26.95
2018-03-27T00:10:40.620Z,25.95
2018-03-27T00:13:08.214Z,24.80
2018-03-27T00:15:35.822Z,28.52
2018-03-27T00:18:03.382Z,23.05
2018-03-27T00:20:30.947Z,21.33
2018-03-27T00:22:58.562Z,25.42
2018-03-27T00:25:26.085Z,22.65
2018-03-27T00:28:05.394Z,20.55
2018-03-27T00:30:44.725Z,22.87
2018-03-27T00:33:24.181Z,23.10
2018-03-27T00:36:03.490Z,27.17
2018-03-27T00:38:43.203Z,21.48
2018-03-27T00:50:10.058Z,19.80
2018-03-27T00:52:38.981Z,15.80
2018-03-27T00:55:07.962Z,14.97
2018-03-27T00:57:37.562Z,17.60
2018-03-27T01:00:05.945Z,20.63
2018-03-27T01:02:33.513Z,16.40
2018-03-27T01:05:06.615Z,15.30
2018-03-27T01:07:34.734Z,16.27
2018-03-27T01:10:02.571Z,28.27
2018-03-27T01:12:30.201Z,28.20
2018-03-27T01:14:57.784Z,33.47
2018-03-27T01:17:26.226Z,33.03
2018-03-27T01:19:53.747Z,32.47
2018-03-27T01:22:21.702Z,26.80
2018-03-27T01:24:49.336Z,22.43
2018-03-27T01:27:16.926Z,20.83
2018-03-27T01:29:44.494Z,19.30
2018-03-27T01:32:12.503Z,19.43
2018-03-27T01:34:40.966Z,16.60
2018-03-27T01:37:08.513Z,18.75
2018-03-27T01:39:36.718Z,20.93
2018-03-27T01:42:05.157Z,28.67
2018-03-27T01:44:32.748Z,36.17
2018-03-27T01:47:00.299Z,38.63
2018-03-27T01:49:28.212Z,38.67
2018-03-27T01:51:55.917Z,36.90
2018-03-27T01:54:23.817Z,35.27
2018-03-27T01:56:51.496Z,39.67
2018-03-27T01:59:19.156Z,33.73
2018-03-27T02:01:46.807Z,31.90
2018-03-27T02:04:14.438Z,25.40
2018-03-27T02:06:42.949Z,24.15
2018-03-27T02:09:10.559Z,24.90
2018-03-27T02:11:43.842Z,30.97
2018-03-27T02:14:17.057Z,31.00
2018-03-27T02:16:55.061Z,34.60
2018-03-27T02:19:28.981Z,47.30
2018-03-27T02:21:56.086Z,59.50
2018-03-27T02:24:24.955Z,67.37
2018-03-27T02:26:54.214Z,66.27
2018-03-27T02:29:22.180Z,64.97
2018-03-27T02:31:50.638Z,63.80
2018-03-27T02:34:18.205Z,68.07
2018-03-27T02:36:45.749Z,60.08
2018-03-27T02:39:13.396Z,73.47
2018-03-27T02:41:41.185Z,73.60
2018-03-27T02:44:08.766Z,69.72
2018-03-27T02:46:37.548Z,75.55
2018-03-27T02:49:05.730Z,56.73
2018-03-27T02:51:33.341Z,64.70
2018-03-27T02:54:01.552Z,64.00
2018-03-27T02:56:29.097Z,62.43
2018-03-27T02:58:56.684Z,63.67
2018-03-27T03:01:24.289Z,52.97
2018-03-27T03:03:51.823Z,61.30
2018-03-27T03:06:19.341Z,58.73
2018-03-27T03:08:46.944Z,58.13
2018-03-27T03:11:14.493Z,60.87
2018-03-27T03:13:42.416Z,66.63
2018-03-27T03:16:09.997Z,52.77
2018-03-27T03:18:37.569Z,53.60
2018-03-27T03:21:05.523Z,56.10
2018-03-27T03:23:33.050Z,53.40
2018-03-27T03:26:00.597Z,55.73
2018-03-27T03:28:28.186Z,54.40
2018-03-27T03:30:56.829Z,59.63
2018-03-27T03:33:24.388Z,53.73
2018-03-27T03:35:52.483Z,55.83
2018-03-27T03:38:20.116Z,64.37
2018-03-27T03:40:48.061Z,51.85
2018-03-27T03:43:16.643Z,62.17
2018-03-27T03:45:44.252Z,67.30
2018-03-27T03:48:11.846Z,64.13
2018-03-27T03:50:39.799Z,65.20
2018-03-27T03:53:07.435Z,62.53
2018-03-27T03:55:34.961Z,64.60
2018-03-27T03:58:02.629Z,59.88
2018-03-27T04:00:30.199Z,61.77
2018-03-27T04:02:58.456Z,56.85
2018-03-27T04:05:25.963Z,54.20
2018-03-27T04:07:53.729Z,55.87
2018-03-27T04:10:23.874Z,51.27
2018-03-27T04:12:52.855Z,51.70
2018-03-27T04:15:20.944Z,58.03
2018-03-27T04:17:49.382Z,57.67
2018-03-27T04:20:29.975Z,63.00
2018-03-27T04:23:00.277Z,61.50
2018-03-27T04:25:27.867Z,57.87
2018-03-27T04:28:11.936Z,64.17
2018-03-27T04:30:39.895Z,71.07
2018-03-27T04:33:07.454Z,63.33
2018-03-27T04:35:35.033Z,64.47
2018-03-27T04:38:03.094Z,55.43
2018-03-27T04:40:30.676Z,64.68
2018-03-27T04:42:58.272Z,63.17
2018-03-27T04:45:25.813Z,69.50
2018-03-27T04:47:53.361Z,66.57
2018-03-27T04:50:20.900Z,64.90
2018-03-27T04:52:48.844Z,66.60
2018-03-27T04:55:16.401Z,79.55
2018-03-27T04:57:44.601Z,70.30
2018-03-27T05:00:14.282Z,76.65
2018-03-27T05:02:42.721Z,81.27
2018-03-27T05:05:10.250Z,68.95
2018-03-27T05:07:38.218Z,70.10
2018-03-27T05:10:06.498Z,64.77
2018-03-27T05:12:35.098Z,71.53
2018-03-27T05:15:03.039Z,64.30
2018-03-27T05:17:30.593Z,79.90
2018-03-27T05:19:58.138Z,77.47
2018-03-27T05:22:25.686Z,70.00
2018-03-27T05:24:53.285Z,79.37
2018-03-27T05:27:20.821Z,71.60
2018-03-27T05:29:48.386Z,65.65
2018-03-27T05:32:15.982Z,63.63
2018-03-27T05:34:43.573Z,64.40
2018-03-27T05:37:11.118Z,95.12
2018-03-27T05:39:38.709Z,128.67
2018-03-27T05:42:06.277Z,161.57
2018-03-27T05:44:33.849Z,160.80
2018-03-27T05:47:01.442Z,114.00
2018-03-27T05:49:28.967Z,93.00
2018-03-27T05:51:56.553Z,90.12
2018-03-27T05:54:24.552Z,94.27
2018-03-27T05:56:52.122Z,78.07
2018-03-27T05:59:19.683Z,81.13
2018-03-27T06:01:47.290Z,79.07
2018-03-27T06:04:16.796Z,78.15
2018-03-27T06:06:44.730Z,80.43
2018-03-27T06:09:12.313Z,77.20
2018-03-27T06:11:39.870Z,73.87
2018-03-27T06:14:07.885Z,66.87
2018-03-27T06:16:35.453Z,67.07
2018-03-27T06:19:03.033Z,69.37
2018-03-27T06:21:30.618Z,73.55
2018-03-27T06:23:58.201Z,64.20
2018-03-27T06:26:26.454Z,65.32
2018-03-27T06:28:54.015Z,61.93
2018-03-27T06:31:21.569Z,57.63
2018-03-27T06:33:49.132Z,53.50
2018-03-27T06:36:17.155Z,48.70
2018-03-27T06:38:44.698Z,45.00
2018-03-27T06:41:12.306Z,51.13
2018-03-27T06:43:39.888Z,60.30
2018-03-27T06:46:07.949Z,47.13
2018-03-27T06:48:35.546Z,44.40
2018-03-27T06:51:06.345Z,42.57
2018-03-27T06:53:34.201Z,46.43
2018-03-27T06:56:01.784Z,48.25
2018-03-27T06:58:31.112Z,54.93
2018-03-27T07:00:58.652Z,48.50
2018-03-27T07:03:26.791Z,50.27
2018-03-27T07:05:55.487Z,52.20
2018-03-27T07:08:23.045Z,51.20
2018-03-27T07:10:50.553Z,49.97
2018-03-27T07:13:18.155Z,47.13
2018-03-27T07:15:45.973Z,52.63
2018-03-27T07:18:13.953Z,55.60
2018-03-27T07:20:41.818Z,54.95
2018-03-27T07:23:09.474Z,51.05
2018-03-27T07:25:37.088Z,49.10
2018-03-27T07:28:05.462Z,47.73
2018-03-27T07:30:33.046Z,49.45
2018-03-27T07:33:00.841Z,47.38
2018-03-27T07:35:28.499Z,42.73
2018-03-27T07:37:57.196Z,46.60
2018-03-27T07:40:24.773Z,48.35
2018-03-27T07:42:52.343Z,46.37
2018-03-27T07:45:20.611Z,44.75
2018-03-27T07:47:48.169Z,53.57
2018-03-27T07:50:15.735Z,56.20
2018-03-27T07:52:43.304Z,49.03
2018-03-27T07:55:10.894Z,43.20
2018-03-27T07:57:38.556Z,44.87
2018-03-27T08:00:06.124Z,41.27
2018-03-27T08:02:34.089Z,42.20
2018-03-27T08:05:02.077Z,44.83
2018-03-27T08:07:29.998Z,43.83
2018-03-27T08:09:57.565Z,41.90
2018-03-27T08:12:25.169Z,41.83
2018-03-27T08:14:53.610Z,41.08
2018-03-27T08:17:21.219Z,42.20
2018-03-27T08:19:48.838Z,40.90
2018-03-27T08:22:16.466Z,36.83
2018-03-27T08:24:44.065Z,37.15
2018-03-27T08:27:11.609Z,47.00
2018-03-27T08:29:39.175Z,40.33
2018-03-27T08:32:06.756Z,41.70
2018-03-27T08:34:34.758Z,35.20
2018-03-27T08:37:02.309Z,39.77
2018-03-27T08:39:29.877Z,38.13
2018-03-27T08:41:57.494Z,38.73
2018-03-27T08:44:25.003Z,36.43
2018-03-27T08:46:52.570Z,35.80
2018-03-27T08:49:20.184Z,37.88
2018-03-27T08:51:48.416Z,41.67
2018-03-27T08:54:16.056Z,34.70
2018-03-27T08:56:43.622Z,37.97
2018-03-27T08:59:11.201Z,35.40
2018-03-27T09:01:38.769Z,38.00
2018-03-27T09:04:07.215Z,31.60
2018-03-27T09:06:34.824Z,38.57
2018-03-27T09:09:02.385Z,35.60
2018-03-27T09:11:30.206Z,31.90
2018-03-27T09:13:57.745Z,35.28
2018-03-27T09:16:25.413Z,42.87
2018-03-27T09:18:52.955Z,39.63
2018-03-27T09:21:20.989Z,38.42
2018-03-27T09:23:48.528Z,39.17
2018-03-27T09:26:16.111Z,31.20
2018-03-27T09:28:43.755Z,43.00
2018-03-27T09:31:12.097Z,34.30
2018-03-27T09:33:39.662Z,38.97
2018-03-27T09:36:07.250Z,39.33
2018-03-27T09:38:34.916Z,38.42
2018-03-27T09:41:02.499Z,35.70
2018-03-27T09:43:30.084Z,33.33
2018-03-27T09:45:58.040Z,39.77
2018-03-27T09:48:25.606Z,38.92
2018-03-27T09:50:53.632Z,34.47
2018-03-27T09:53:21.255Z,32.55
2018-03-27T09:55:49.564Z,40.50
2018-03-27T09:58:17.855Z,41.43
2018-03-27T10:00:50.338Z,33.28
2018-03-27T10:03:17.937Z,37.80
2018-03-27T10:05:46.088Z,41.40
2018-03-27T10:08:13.661Z,35.03
2018-03-27T10:10:41.215Z,36.27
2018-03-27T10:13:09.206Z,34.70
2018-03-27T10:15:36.798Z,39.97
2018-03-27T10:18:04.342Z,35.00
2018-03-27T10:20:31.894Z,35.28
2018-03-27T10:22:59.479Z,42.83
2018-03-27T10:25:27.034Z,41.60
2018-03-27T10:27:54.618Z,32.15
2018-03-27T10:30:22.257Z,30.77
2018-03-27T10:32:49.956Z,34.67
2018-03-27T10:35:17.556Z,33.95
2018-03-27T10:37:45.164Z,32.33
2018-03-27T10:40:12.855Z,38.15
2018-03-27T10:42:40.477Z,28.13
2018-03-27T10:45:08.056Z,24.50
2018-03-27T10:47:35.694Z,28.50
2018-03-27T10:50:03.270Z,24.35
2018-03-27T10:52:30.848Z,23.70
2018-03-27T10:54:58.426Z,22.93
2018-03-27T10:57:26.389Z,21.75
2018-03-27T10:59:53.942Z,24.90
2018-03-27T11:02:21.923Z,29.10
2018-03-27T11:04:49.900Z,22.40
2018-03-27T11:07:17.445Z,24.00
2018-03-27T11:09:45.399Z,20.23
2018-03-27T11:12:13.013Z,17.57
2018-03-27T11:14:40.573Z,22.80
2018-03-27T11:17:09.514Z,21.13
2018-03-27T11:19:37.053Z,24.40
2018-03-27T11:22:04.656Z,19.33
2018-03-27T11:24:32.287Z,25.63
2018-03-27T11:27:00.022Z,24.37
2018-03-27T11:29:27.690Z,24.90
2018-03-27T11:31:55.642Z,27.17
2018-03-27T11:34:23.191Z,26.20
2018-03-27T11:36:51.314Z,25.33
2018-03-27T11:39:18.881Z,20.80
2018-03-27T11:41:46.402Z,20.30
2018-03-27T11:44:13.972Z,23.27
2018-03-27T11:46:41.579Z,23.38
2018-03-27T11:49:09.559Z,23.63
2018-03-27T11:51:37.601Z,21.90
2018-03-27T11:54:05.192Z,28.27
2018-03-27T11:56:32.982Z,20.83
2018-03-27T11:59:00.572Z,26.03
2018-03-27T12:01:28.193Z,30.70
2018-03-27T12:03:55.762Z,30.37
2018-03-27T12:06:23.328Z,30.23
2018-03-27T12:08:50.918Z,30.60
2018-03-27T12:11:18.458Z,29.93
2018-03-27T12:13:46.031Z,31.57
2018-03-27T12:16:13.590Z,34.78
2018-03-27T12:18:41.190Z,29.17
2018-03-27T12:21:08.786Z,33.85
2018-03-27T12:23:36.393Z,32.23
2018-03-27T12:26:04.376Z,27.57
2018-03-27T12:28:33.299Z,25.27
2018-03-27T12:31:00.890Z,29.27
2018-03-27T12:33:28.480Z,25.10
2018-03-27T12:35:56.417Z,32.53
2018-03-27T12:38:23.977Z,31.37
2018-03-27T12:40:51.564Z,35.13
2018-03-27T12:43:19.206Z,30.63
2018-03-27T12:45:46.790Z,30.27
2018-03-27T12:48:14.744Z,30.93
2018-03-27T12:50:42.328Z,28.33
2018-03-27T12:53:10.299Z,32.30
2018-03-27T12:55:37.900Z,28.48
2018-03-27T12:58:05.622Z,25.43
2018-03-27T13:00:33.182Z,22.47
2018-03-27T13:03:01.277Z,23.62
2018-03-27T13:05:28.840Z,24.60
2018-03-27T13:07:56.390Z,21.90
2018-03-27T13:10:23.966Z,23.57
2018-03-27T13:12:51.518Z,22.42
2018-03-27T13:15:19.137Z,26.80
2018-03-27T13:17:46.678Z,21.93
2018-03-27T13:20:14.289Z,26.52
2018-03-27T13:22:41.840Z,24.08
2018-03-27T13:25:09.416Z,27.17
2018-03-27T13:27:36.995Z,24.70
2018-03-27T13:30:04.546Z,28.83
2018-03-27T13:32:32.151Z,26.10
2018-03-27T13:34:59.729Z,26.17
2018-03-27T13:37:27.669Z,24.95
2018-03-27T13:39:56.062Z,29.83
2018-03-27T13:42:23.651Z,24.67
2018-03-27T13:44:51.235Z,26.33
2018-03-27T13:47:18.825Z,29.27
2018-03-27T13:49:46.383Z,30.53
2018-03-27T13:52:13.938Z,26.70
2018-03-27T13:54:41.504Z,33.07
2018-03-27T13:57:09.073Z,25.90
2018-03-27T13:59:36.658Z,29.70
2018-03-27T14:02:04.597Z,28.67
2018-03-27T14:04:32.152Z,25.17
2018-03-27T14:06:59.768Z,24.83
2018-03-27T14:09:27.306Z,23.90
2018-03-27T14:11:55.260Z,27.30
2018-03-27T14:14:22.794Z,28.03
2018-03-27T14:16:50.333Z,27.85
2018-03-27T14:19:17.920Z,25.03
2018-03-27T14:21:45.487Z,29.13
2018-03-27T14:24:13.110Z,25.63
2018-03-27T14:26:40.688Z,25.02
2018-03-27T14:29:09.908Z,27.13
2018-03-27T14:31:37.701Z,30.80
2018-03-27T14:34:05.783Z,30.60
2018-03-27T14:36:33.411Z,32.67
2018-03-27T14:39:01.019Z,26.67
2018-03-27T14:41:29.278Z,29.90
2018-03-27T14:43:57.321Z,25.10
2018-03-27T14:46:24.896Z,30.00
2018-03-27T14:48:52.882Z,26.17
2018-03-27T14:51:20.519Z,27.67
2018-03-27T14:53:48.518Z,28.40
2018-03-27T14:56:16.154Z,33.40
2018-03-27T14:58:44.122Z,25.53
2018-03-27T15:01:12.166Z,28.40
2018-03-27T15:03:39.786Z,28.83
2018-03-27T15:06:07.921Z,32.63
2018-03-27T15:08:35.938Z,33.43
2018-03-27T15:11:03.509Z,27.80
2018-03-27T15:13:31.128Z,35.37
2018-03-27T15:15:58.660Z,37.40
2018-03-27T15:18:26.246Z,32.13
2018-03-27T15:20:54.441Z,34.00
2018-03-27T15:23:22.045Z,30.13
2018-03-27T15:25:49.669Z,33.63
2018-03-27T15:28:17.213Z,29.90
2018-03-27T15:30:45.774Z,32.17
2018-03-27T15:33:13.752Z,33.73
2018-03-27T15:35:41.748Z,35.13
2018-03-27T15:38:09.310Z,32.13
2018-03-27T15:40:36.871Z,45.90
2018-03-27T15:43:04.505Z,30.60
2018-03-27T15:45:32.088Z,34.30
2018-03-27T15:47:59.659Z,28.80
2018-03-27T15:50:27.255Z,30.05
2018-03-27T15:52:54.838Z,32.37
2018-03-27T15:55:22.766Z,33.80
2018-03-27T15:57:50.366Z,34.23
2018-03-27T16:00:18.469Z,31.73
2018-03-27T16:02:46.039Z,32.07
2018-03-27T16:05:13.625Z,34.78
2018-03-27T16:07:41.180Z,34.90
2018-03-27T16:10:08.812Z,34.80
2018-03-27T16:12:36.406Z,31.47
2018-03-27T16:15:04.009Z,30.07
2018-03-27T16:17:31.510Z,38.00
2018-03-27T16:19:59.291Z,35.17
2018-03-27T16:22:26.943Z,35.67
2018-03-27T16:24:54.549Z,38.97
2018-03-27T16:27:22.097Z,38.05
2018-03-27T16:29:50.266Z,36.40
2018-03-27T16:32:18.320Z,37.85
2018-03-27T16:34:45.965Z,47.50
2018-03-27T16:37:13.547Z,40.10
2018-03-27T16:39:41.134Z,41.03
2018-03-27T16:42:10.029Z,44.33
2018-03-27T16:44:37.989Z,46.23
2018-03-27T16:47:05.944Z,41.63
2018-03-27T16:49:33.520Z,42.20
2018-03-27T16:52:01.563Z,46.00
2018-03-27T16:54:29.166Z,55.30
2018-03-27T16:56:57.095Z,43.92
2018-03-27T16:59:24.678Z,44.17
2018-03-27T17:01:52.247Z,41.37
2018-03-27T17:04:19.848Z,39.63
2018-03-27T17:06:47.498Z,39.17
2018-03-27T17:09:15.080Z,43.40
2018-03-27T17:11:42.631Z,44.07
2018-03-27T17:14:10.209Z,40.67
2018-03-27T17:16:37.791Z,47.43
2018-03-27T17:19:05.948Z,42.93
2018-03-27T17:21:33.606Z,42.57
2018-03-27T17:24:01.171Z,41.33
2018-03-27T17:26:28.718Z,42.10
2018-03-27T17:28:56.287Z,40.87
2018-03-27T17:31:23.908Z,44.00
2018-03-27T17:33:51.853Z,46.80
2018-03-27T17:36:19.817Z,46.17
2018-03-27T17:38:47.782Z,49.30
2018-03-27T17:41:15.743Z,49.70
2018-03-27T17:43:43.311Z,46.50
2018-03-27T17:46:11.350Z,42.40
2018-03-27T17:48:38.916Z,44.20
2018-03-27T17:51:06.485Z,41.92
2018-03-27T17:53:34.614Z,43.30
2018-03-27T17:56:02.197Z,39.53
2018-03-27T17:58:29.747Z,42.80
2018-03-27T18:00:57.315Z,42.30
2018-03-27T18:03:25.021Z,42.40
2018-03-27T18:05:52.993Z,47.90
2018-03-27T18:08:20.582Z,42.67
2018-03-27T18:10:48.139Z,42.70
